Time;durP1;ratioP1;P1;durP2;ratioP2;P2;SDS_P1;SDS_P2;PMS_P1;PMS_P2;Temp;Humidity;BMP_temperature;BMP_pressure;BME280_temperature;BME280_humidity;BME280_pressure;Samples;Min_cycle;Max_cycle;Signal;HPM_P1;HPM_P2
2023/06/11 00:04:19;;;;;;;4.25;3.15;;;26.90;63.30;;;;;;10128204;28;20052;-72
2023/06/11 00:09:09;;;;;;;3.35;3.00;;;26.90;63.20;;;;;;10123603;28;20036;-67
2023/06/11 00:14:00;;;;;;;3.80;3.05;;;26.60;64.00;;;;;;10116958;28;20380;-70
2023/06/11 00:18:51;;;;;;;4.53;3.45;;;26.50;64.50;;;;;;10124910;28;20035;-66
2023/06/11 00:23:41;;;;;;;4.22;3.17;;;26.40;64.80;;;;;;10113228;28;20470;-68
2023/06/11 00:28:32;;;;;;;4.32;3.58;;;26.20;65.30;;;;;;10129075;28;20513;-66
2023/06/11 00:33:23;;;;;;;3.85;3.42;;;26.10;65.50;;;;;;10129065;28;20051;-66
2023/06/11 00:38:15;;;;;;;5.00;3.80;;;26.00;66.10;;;;;;10130108;28;20035;-67
2023/06/11 00:43:07;;;;;;;4.78;3.60;;;25.80;66.50;;;;;;10128728;28;20566;-66
2023/06/11 00:47:58;;;;;;;4.28;3.65;;;25.80;66.60;;;;;;10116697;28;20037;-68
2023/06/11 00:52:49;;;;;;;4.75;3.38;;;25.70;67.00;;;;;;10120161;28;20040;-66
2023/06/11 00:57:42;;;;;;;4.63;3.67;;;25.60;67.40;;;;;;10131998;28;20029;-67
2023/06/11 01:02:40;;;;;;;3.80;3.38;;;25.60;68.00;;;;;;10117408;28;20048;-67
2023/06/11 01:07:35;;;;;;;5.07;3.35;;;25.50;67.80;;;;;;10116226;28;20029;-65
2023/06/11 01:12:26;;;;;;;5.95;3.58;;;25.40;68.30;;;;;;10118317;28;20053;-66
2023/06/11 01:17:29;;;;;;;7.20;3.88;;;25.30;68.50;;;;;;10122497;28;20138;-67
2023/06/11 01:22:38;;;;;;;6.07;3.65;;;25.00;69.50;;;;;;10126643;28;20040;-67
2023/06/11 01:27:50;;;;;;;6.07;3.90;;;24.90;69.80;;;;;;10118073;28;20514;-71
2023/06/11 01:32:41;;;;;;;6.20;4.00;;;24.90;70.00;;;;;;10121332;28;20048;-66
2023/06/11 01:37:32;;;;;;;8.10;4.07;;;25.00;69.60;;;;;;10118107;28;20555;-66
2023/06/11 01:42:23;;;;;;;5.05;4.10;;;25.10;69.50;;;;;;10115470;28;20068;-69
2023/06/11 01:47:14;;;;;;;5.68;4.40;;;24.90;70.00;;;;;;10120925;28;20028;-71
2023/06/11 01:52:05;;;;;;;8.75;4.10;;;24.80;70.60;;;;;;10111086;28;20124;-67
2023/06/11 01:56:55;;;;;;;5.18;3.70;;;24.80;71.30;;;;;;10126576;28;20045;-67
2023/06/11 02:01:52;;;;;;;6.32;4.43;;;24.60;71.10;;;;;;10123859;28;20071;-70
2023/06/11 02:06:44;;;;;;;5.90;3.75;;;24.60;71.30;;;;;;10121671;28;20430;-71
2023/06/11 02:11:34;;;;;;;6.30;4.07;;;24.30;72.00;;;;;;10111793;28;20052;-67
2023/06/11 02:16:25;;;;;;;6.35;4.45;;;24.30;72.00;;;;;;10130597;28;20020;-66
2023/06/11 02:21:15;;;;;;;7.60;3.90;;;24.40;71.80;;;;;;10114825;28;20028;-70
2023/06/11 02:26:06;;;;;;;6.15;3.60;;;24.50;71.90;;;;;;10109924;28;20029;-68
2023/06/11 02:30:57;;;;;;;5.43;4.38;;;24.40;72.00;;;;;;10110071;28;20044;-68
2023/06/11 02:35:47;;;;;;;4.93;3.95;;;24.20;72.60;;;;;;10124334;28;20021;-67
2023/06/11 02:40:38;;;;;;;6.07;3.97;;;24.10;73.00;;;;;;10114227;28;20060;-71
2023/06/11 02:45:28;;;;;;;6.40;4.35;;;23.90;73.30;;;;;;10108186;28;20226;-66
2023/06/11 02:50:19;;;;;;;5.43;4.00;;;23.90;73.40;;;;;;10108646;28;20032;-69
2023/06/11 02:55:10;;;;;;;6.65;3.97;;;24.00;73.40;;;;;;10128149;28;20025;-66
2023/06/11 03:00:00;;;;;;;4.95;3.88;;;23.60;74.10;;;;;;10122275;28;20025;-71
2023/06/11 03:04:51;;;;;;;4.95;4.45;;;23.50;74.50;;;;;;10127502;28;20132;-68
2023/06/11 03:09:42;;;;;;;6.20;3.90;;;23.50;74.70;;;;;;10114246;28;20065;-67
2023/06/11 03:14:32;;;;;;;5.45;3.85;;;23.70;74.50;;;;;;10122300;28;20041;-66
2023/06/11 03:19:23;;;;;;;5.20;3.95;;;23.60;74.70;;;;;;10123927;28;20106;-66
2023/06/11 03:24:14;;;;;;;5.43;4.55;;;23.50;75.10;;;;;;10115353;28;20043;-67
2023/06/11 03:29:04;;;;;;;6.13;4.20;;;23.50;75.20;;;;;;10117810;28;20036;-69
2023/06/11 03:33:55;;;;;;;5.55;4.22;;;23.30;75.60;;;;;;10109131;28;20029;-68
2023/06/11 03:38:46;;;;;;;5.22;3.90;;;23.20;76.10;;;;;;10107103;28;20562;-69
2023/06/11 03:43:36;;;;;;;5.68;4.30;;;23.00;76.50;;;;;;10108340;28;20039;-69
2023/06/11 03:48:27;;;;;;;6.95;4.25;;;22.90;76.90;;;;;;10115490;28;20028;-69
2023/06/11 03:53:18;;;;;;;6.25;3.97;;;22.90;77.00;;;;;;10117862;28;20039;-71
2023/06/11 03:58:09;;;;;;;6.15;4.53;;;22.80;77.30;;;;;;10130094;28;20053;-71
2023/06/11 04:02:59;;;;;;;5.70;3.83;;;22.90;77.00;;;;;;10121243;28;20507;-70
2023/06/11 04:07:50;;;;;;;5.53;4.15;;;22.90;77.40;;;;;;10127364;28;20108;-70
2023/06/11 04:12:41;;;;;;;4.55;3.58;;;22.80;77.60;;;;;;10117554;28;20498;-70
2023/06/11 04:17:31;;;;;;;4.93;3.67;;;22.80;77.60;;;;;;10119345;28;20029;-71
2023/06/11 04:22:22;;;;;;;7.30;4.18;;;22.80;78.00;;;;;;10117417;28;20044;-71
2023/06/11 04:27:12;;;;;;;5.88;4.07;;;22.50;78.60;;;;;;10124657;28;20043;-69
2023/06/11 04:32:03;;;;;;;6.30;4.10;;;22.50;78.90;;;;;;10125257;28;20045;-67
2023/06/11 04:36:55;;;;;;;7.00;3.75;;;22.40;79.10;;;;;;10115329;28;20032;-67
2023/06/11 04:41:46;;;;;;;4.35;3.95;;;22.40;79.50;;;;;;10116985;28;20522;-66
2023/06/11 04:46:38;;;;;;;4.85;4.15;;;22.50;79.50;;;;;;10118574;28;20041;-70
2023/06/11 04:51:32;;;;;;;4.00;3.50;;;22.50;79.80;;;;;;10126883;28;20512;-67
2023/06/11 04:56:23;;;;;;;5.68;3.80;;;22.50;79.70;;;;;;10127080;28;20025;-67
2023/06/11 05:01:13;;;;;;;6.32;4.38;;;22.30;80.40;;;;;;10119309;28;20521;-67
2023/06/11 05:06:04;;;;;;;6.85;3.70;;;22.30;80.60;;;;;;10122809;28;20035;-65
2023/06/11 05:10:57;;;;;;;5.60;4.32;;;22.40;80.50;;;;;;10116894;28;20045;-66
2023/06/11 05:15:48;;;;;;;4.68;4.03;;;22.50;80.40;;;;;;10119176;28;20185;-65
2023/06/11 05:20:39;;;;;;;4.63;3.67;;;22.80;80.10;;;;;;10130877;28;20111;-66
2023/06/11 05:25:29;;;;;;;5.57;4.18;;;22.60;80.60;;;;;;10123403;28;20566;-65
2023/06/11 05:30:24;;;;;;;5.18;3.70;;;22.70;80.90;;;;;;10122310;28;20807;-66
2023/06/11 05:35:15;;;;;;;4.55;3.80;;;22.70;80.80;;;;;;10117864;28;20099;-68
2023/06/11 05:40:07;;;;;;;6.45;3.88;;;22.90;80.70;;;;;;10115601;28;20050;-67
2023/06/11 05:44:57;;;;;;;4.85;3.33;;;22.80;80.90;;;;;;10116922;28;20025;-70
2023/06/11 05:49:48;;;;;;;4.85;3.80;;;22.80;81.10;;;;;;10126930;28;20045;-67
2023/06/11 05:54:39;;;;;;;6.07;4.18;;;22.90;81.00;;;;;;10117639;28;20128;-68
2023/06/11 05:59:29;;;;;;;19.95;5.15;;;22.80;81.60;;;;;;10114285;28;20029;-69
2023/06/11 06:04:20;;;;;;;6.25;4.60;;;22.70;81.60;;;;;;10118494;28;20340;-70
2023/06/11 06:09:11;;;;;;;5.65;4.60;;;22.90;81.30;;;;;;10117402;28;20036;-67
2023/06/11 06:14:02;;;;;;;5.15;4.38;;;23.00;81.40;;;;;;10126414;28;20092;-67
2023/06/11 06:18:53;;;;;;;4.88;4.38;;;23.30;81.00;;;;;;10123320;28;20048;-66
2023/06/11 06:23:44;;;;;;;7.82;5.28;;;23.40;80.80;;;;;;10113291;28;20483;-70
2023/06/11 06:28:35;;;;;;;6.75;5.18;;;23.50;80.60;;;;;;10126171;28;20036;-68
2023/06/11 06:33:26;;;;;;;6.43;5.20;;;23.60;80.80;;;;;;10109085;28;20044;-67
2023/06/11 06:38:17;;;;;;;8.18;5.43;;;23.70;80.60;;;;;;10109921;28;20032;-70
2023/06/11 06:43:08;;;;;;;8.07;4.70;;;23.70;80.60;;;;;;10108271;28;20044;-66
2023/06/11 06:47:58;;;;;;;7.90;4.40;;;23.80;80.40;;;;;;10132371;28;20069;-66
2023/06/11 06:52:49;;;;;;;6.80;5.30;;;23.90;80.30;;;;;;10129985;28;20040;-66
2023/06/11 06:57:39;;;;;;;5.88;4.10;;;23.90;80.30;;;;;;10135557;28;20055;-67
2023/06/11 07:02:30;;;;;;;6.55;4.80;;;24.20;80.00;;;;;;10111227;28;20061;-66
2023/06/11 07:07:24;;;;;;;6.70;4.15;;;24.40;79.50;;;;;;10113847;28;20032;-66
2023/06/11 07:12:15;;;;;;;7.65;4.28;;;24.60;79.10;;;;;;10126732;28;20051;-66
2023/06/11 07:17:05;;;;;;;4.93;3.90;;;24.70;78.90;;;;;;10115645;28;20024;-65
2023/06/11 07:21:56;;;;;;;4.78;4.28;;;24.70;79.00;;;;;;10114349;28;20025;-68
2023/06/11 07:26:47;;;;;;;5.13;4.15;;;24.80;78.80;;;;;;10126869;28;20052;-66
2023/06/11 07:31:37;;;;;;;5.20;4.60;;;24.80;78.70;;;;;;10130463;28;20075;-66
2023/06/11 07:36:28;;;;;;;4.40;3.95;;;24.90;78.40;;;;;;10128545;28;20020;-70
2023/06/11 07:41:18;;;;;;;7.10;4.43;;;24.80;78.70;;;;;;10129692;28;20111;-68
2023/06/11 07:46:10;;;;;;;7.10;4.57;;;24.90;78.60;;;;;;10117970;28;20037;-66
2023/06/11 07:51:01;;;;;;;5.60;4.55;;;24.90;78.70;;;;;;10124843;28;20036;-67
2023/06/11 07:55:56;;;;;;;6.80;4.78;;;25.00;78.80;;;;;;10132691;28;20510;-70
2023/06/11 08:00:47;;;;;;;7.60;4.72;;;25.00;78.90;;;;;;10128368;28;20633;-69
2023/06/11 08:05:37;;;;;;;5.05;4.60;;;25.10;78.60;;;;;;10116846;28;20252;-66
2023/06/11 08:10:28;;;;;;;7.20;4.28;;;25.20;78.50;;;;;;10134029;28;20161;-69
2023/06/11 08:15:19;;;;;;;6.18;4.32;;;25.20;78.70;;;;;;10122186;28;20043;-67
2023/06/11 08:20:10;;;;;;;5.38;3.90;;;25.20;78.50;;;;;;10117281;28;20039;-67
2023/06/11 08:25:01;;;;;;;5.10;3.60;;;25.20;78.20;;;;;;10117153;28;20403;-69
2023/06/11 08:29:53;;;;;;;7.88;3.88;;;25.40;78.10;;;;;;10132472;28;20039;-66
2023/06/11 08:34:44;;;;;;;4.90;3.92;;;25.30;77.90;;;;;;10127794;28;20039;-69
2023/06/11 08:39:35;;;;;;;10.07;6.05;;;25.40;77.80;;;;;;10119471;28;20036;-66
2023/06/11 08:44:26;;;;;;;4.75;3.97;;;25.60;78.10;;;;;;10104571;28;20024;-67
2023/06/11 08:49:21;;;;;;;4.05;3.58;;;25.80;77.10;;;;;;10124403;28;20120;-69
2023/06/11 08:54:12;;;;;;;5.40;3.92;;;25.80;77.00;;;;;;10128581;28;20043;-68
2023/06/11 08:59:02;;;;;;;6.18;4.10;;;26.00;76.70;;;;;;10131239;28;20040;-68
2023/06/11 09:03:53;;;;;;;6.43;3.67;;;26.10;76.30;;;;;;10113572;28;20045;-67
2023/06/11 09:09:07;;;;;;;4.85;3.95;;;26.20;76.00;;;;;;10136518;28;20039;-67
2023/06/11 09:13:58;;;;;;;4.87;3.97;;;26.40;75.30;;;;;;10109463;28;20051;-66
2023/06/11 09:18:48;;;;;;;4.88;3.92;;;26.40;75.90;;;;;;10120903;28;20027;-68
2023/06/11 09:23:39;;;;;;;5.50;4.30;;;26.50;75.00;;;;;;10123588;28;20090;-67
2023/06/11 09:28:35;;;;;;;5.18;3.78;;;26.40;75.10;;;;;;10113619;28;20128;-68
2023/06/11 09:33:27;;;;;;;6.78;4.00;;;26.50;75.00;;;;;;10117800;28;20124;-66
2023/06/11 09:38:20;;;;;;;5.00;3.33;;;26.70;74.40;;;;;;10113749;28;20136;-70
2023/06/11 09:43:11;;;;;;;4.32;3.30;;;27.00;74.00;;;;;;10118329;28;20059;-70
2023/06/11 09:48:03;;;;;;;6.57;4.13;;;26.80;73.60;;;;;;10124673;28;20031;-69
2023/06/11 09:52:55;;;;;;;4.10;3.67;;;27.10;73.30;;;;;;10117995;28;20033;-66
2023/06/11 09:57:46;;;;;;;5.13;3.83;;;27.30;72.90;;;;;;10129653;28;20033;-67
2023/06/11 10:02:39;;;;;;;6.63;4.30;;;27.30;72.80;;;;;;10124137;28;20177;-68
2023/06/11 10:07:31;;;;;;;5.03;3.75;;;27.50;72.80;;;;;;10111144;28;20480;-67
2023/06/11 10:12:22;;;;;;;4.60;3.50;;;27.50;72.80;;;;;;10122811;28;20044;-70
2023/06/11 10:17:15;;;;;;;7.63;4.25;;;27.70;72.50;;;;;;10120661;28;20103;-68
2023/06/11 10:22:06;;;;;;;4.55;3.78;;;27.80;72.50;;;;;;10110552;28;20039;-68
2023/06/11 10:27:14;;;;;;;6.85;3.85;;;28.00;72.30;;;;;;10121262;28;20033;-69
2023/06/11 10:32:17;;;;;;;5.47;4.20;;;28.30;71.70;;;;;;10113098;28;20039;-67
2023/06/11 10:37:10;;;;;;;4.83;3.70;;;28.30;71.60;;;;;;10115913;28;20025;-71
2023/06/11 10:42:05;;;;;;;5.13;3.95;;;28.30;71.40;;;;;;10112161;28;20036;-67
2023/06/11 10:47:00;;;;;;;4.53;4.07;;;28.70;71.10;;;;;;10133084;28;20024;-67
2023/06/11 10:51:52;;;;;;;5.18;3.55;;;28.70;70.70;;;;;;10118713;28;20039;-68
2023/06/11 10:56:45;;;;;;;4.03;3.30;;;28.70;70.60;;;;;;10123020;28;20024;-67
2023/06/11 11:01:36;;;;;;;3.95;3.55;;;29.00;70.00;;;;;;10116693;28;20108;-67
2023/06/11 11:06:28;;;;;;;4.10;3.63;;;29.20;69.60;;;;;;10117899;28;20020;-67
2023/06/11 11:11:18;;;;;;;5.40;4.60;;;29.20;69.40;;;;;;10118931;28;20056;-72
2023/06/11 11:16:09;;;;;;;5.95;3.60;;;29.10;69.40;;;;;;10118539;28;20040;-71
2023/06/11 11:21:00;;;;;;;4.93;3.42;;;29.00;68.90;;;;;;10119941;28;20036;-67
2023/06/11 11:25:51;;;;;;;5.03;2.97;;;29.30;68.40;;;;;;10121166;28;20082;-67
2023/06/11 11:30:45;;;;;;;4.40;3.28;;;29.60;67.60;;;;;;10115189;28;20040;-69
2023/06/11 11:35:48;;;;;;;4.65;3.08;;;29.70;67.30;;;;;;10121742;28;20051;-69
2023/06/11 11:40:39;;;;;;;6.43;3.38;;;30.00;66.50;;;;;;10106318;28;20273;-68
2023/06/11 11:45:32;;;;;;;3.92;3.33;;;30.30;65.90;;;;;;10109344;28;20545;-67
2023/06/11 11:50:30;;;;;;;4.10;2.90;;;30.50;65.30;;;;;;10114983;28;20107;-71
2023/06/11 11:55:21;;;;;;;4.50;3.33;;;30.70;64.80;;;;;;10106519;28;20055;-72
2023/06/11 12:00:12;;;;;;;3.83;3.42;;;30.30;64.80;;;;;;10119052;28;20478;-67
2023/06/11 12:05:03;;;;;;;4.93;3.75;;;30.10;64.50;;;;;;10120570;28;20302;-70
2023/06/11 12:09:54;;;;;;;5.22;2.88;;;29.90;64.30;;;;;;10127414;28;20031;-68
2023/06/11 12:14:45;;;;;;;4.75;3.42;;;30.00;64.20;;;;;;10123427;28;20044;-67
2023/06/11 12:19:36;;;;;;;3.28;2.97;;;30.70;63.70;;;;;;10130158;28;20427;-69
2023/06/11 12:24:26;;;;;;;5.40;3.22;;;31.20;63.40;;;;;;10124566;28;20648;-69
2023/06/11 12:29:17;;;;;;;3.70;3.33;;;31.40;63.20;;;;;;10125902;28;20349;-66
2023/06/11 12:34:14;;;;;;;2.70;2.50;;;31.90;62.80;;;;;;10108647;28;20340;-69
2023/06/11 12:39:05;;;;;;;4.85;2.63;;;32.10;62.30;;;;;;10127692;28;20072;-68
2023/06/11 12:43:55;;;;;;;3.17;2.88;;;32.40;61.60;;;;;;10119138;28;20025;-69
2023/06/11 12:48:46;;;;;;;3.00;2.70;;;33.00;61.10;;;;;;10118447;28;20082;-69
2023/06/11 12:53:37;;;;;;;3.50;2.77;;;33.90;60.40;;;;;;10132655;28;20175;-69
2023/06/11 12:58:27;;;;;;;3.28;2.97;;;33.50;59.90;;;;;;10118946;28;20096;-68
2023/06/11 13:03:18;;;;;;;5.28;2.90;;;32.90;60.00;;;;;;10115059;28;20049;-69
2023/06/11 13:08:09;;;;;;;3.27;2.97;;;34.10;58.80;;;;;;10126331;28;20027;-68
2023/06/11 13:13:00;;;;;;;3.23;3.00;;;35.20;57.90;;;;;;10114033;28;20336;-68
2023/06/11 13:17:51;;;;;;;3.00;2.67;;;35.20;57.20;;;;;;10117722;28;20544;-68
2023/06/11 13:22:42;;;;;;;2.90;2.70;;;34.30;57.50;;;;;;10124356;28;20127;-69
2023/06/11 13:27:33;;;;;;;3.13;2.88;;;35.60;56.60;;;;;;10125180;28;20031;-69
2023/06/11 13:32:23;;;;;;;4.32;2.58;;;36.60;55.70;;;;;;10120416;28;20086;-67
2023/06/11 13:37:14;;;;;;;3.63;2.78;;;37.40;54.70;;;;;;10118838;28;20406;-69
2023/06/11 13:42:05;;;;;;;3.72;3.15;;;38.50;53.50;;;;;;10112522;28;20035;-72
2023/06/11 13:46:56;;;;;;;3.95;3.20;;;38.60;52.40;;;;;;10117409;28;20086;-69
2023/06/11 13:51:46;;;;;;;4.43;3.22;;;35.90;53.60;;;;;;10129273;28;20040;-70
2023/06/11 13:56:40;;;;;;;;;;;37.80;52.00;;;;;;10116006;28;20220;-68
2023/06/11 14:01:31;;;;;;;4.03;3.22;;;38.30;50.50;;;;;;10121144;28;20294;-68
2023/06/11 14:06:22;;;;;;;2.92;2.63;;;39.30;50.20;;;;;;10124835;28;20112;-68
2023/06/11 14:11:13;;;;;;;4.45;3.00;;;38.70;49.40;;;;;;10113866;28;20056;-70
2023/06/11 14:16:04;;;;;;;3.28;2.97;;;38.10;48.70;;;;;;10130022;28;20024;-68
2023/06/11 14:20:56;;;;;;;3.25;2.95;;;38.80;47.90;;;;;;10124013;28;20043;-67
2023/06/11 14:25:46;;;;;;;5.85;3.22;;;38.60;47.20;;;;;;10117752;28;20437;-68
2023/06/11 14:30:37;;;;;;;3.17;2.80;;;39.30;46.60;;;;;;10120513;28;20090;-67
2023/06/11 14:35:28;;;;;;;4.30;3.15;;;39.20;46.10;;;;;;10118232;28;20494;-71
2023/06/11 14:40:18;;;;;;;3.17;2.88;;;39.60;45.90;;;;;;10120362;28;20108;-67
2023/06/11 14:45:09;;;;;;;4.20;3.00;;;39.70;45.70;;;;;;10114686;28;20035;-68
2023/06/11 14:50:00;;;;;;;3.78;3.10;;;38.90;45.40;;;;;;10106639;28;20039;-68
2023/06/11 14:54:51;;;;;;;3.00;2.42;;;39.00;45.10;;;;;;10126932;28;20033;-67
2023/06/11 14:59:42;;;;;;;3.40;3.10;;;39.00;44.70;;;;;;10116787;28;20017;-67
2023/06/11 15:04:35;;;;;;;3.70;2.95;;;38.40;44.40;;;;;;10112146;28;20136;-66
2023/06/11 15:09:26;;;;;;;3.72;3.33;;;39.00;44.30;;;;;;10121421;28;20033;-67
2023/06/11 15:14:17;;;;;;;3.03;2.72;;;38.40;44.30;;;;;;10140517;28;20455;-68
2023/06/11 15:19:08;;;;;;;4.68;3.08;;;37.90;44.10;;;;;;10127920;28;20546;-69
2023/06/11 15:23:58;;;;;;;3.47;3.00;;;38.00;44.00;;;;;;10112826;28;20116;-71
2023/06/11 15:28:49;;;;;;;3.83;3.53;;;37.80;44.00;;;;;;10116795;28;20035;-71
2023/06/11 15:33:40;;;;;;;3.75;3.08;;;38.00;43.90;;;;;;10116622;28;20497;-68
2023/06/11 15:38:31;;;;;;;3.55;3.10;;;38.30;43.60;;;;;;10122055;28;20031;-70
2023/06/11 15:43:21;;;;;;;3.70;3.25;;;38.90;43.40;;;;;;10123314;28;20040;-68
2023/06/11 15:48:12;;;;;;;3.33;3.03;;;39.70;43.00;;;;;;10114860;28;20029;-69
2023/06/11 15:53:05;;;;;;;3.78;3.38;;;39.50;42.80;;;;;;10121609;28;20516;-68
2023/06/11 15:57:55;;;;;;;3.50;3.20;;;39.50;42.80;;;;;;10134657;28;20035;-67
2023/06/11 16:02:46;;;;;;;3.38;3.08;;;39.80;42.30;;;;;;10119610;28;20136;-68
2023/06/11 16:07:37;;;;;;;3.85;3.42;;;40.20;42.00;;;;;;10124745;28;20028;-67
2023/06/11 16:12:27;;;;;;;4.32;3.10;;;41.20;41.50;;;;;;10119423;28;20047;-67
2023/06/11 16:17:19;;;;;;;5.22;3.10;;;42.10;41.10;;;;;;10128691;28;20440;-71
2023/06/11 16:22:10;;;;;;;3.72;3.20;;;42.80;40.60;;;;;;10137031;28;20066;-69
2023/06/11 16:27:00;;;;;;;3.80;3.40;;;43.40;39.80;;;;;;10106210;28;20662;-71
2023/06/11 16:31:51;;;;;;;3.35;3.10;;;42.90;39.50;;;;;;10126527;28;20076;-71
2023/06/11 16:36:42;;;;;;;3.72;3.17;;;43.10;39.20;;;;;;10127494;28;20024;-72
2023/06/11 16:41:33;;;;;;;3.70;3.40;;;43.90;39.00;;;;;;10128715;28;20179;-72
2023/06/11 16:46:24;;;;;;;3.78;3.47;;;44.70;38.70;;;;;;10105056;28;20045;-75
2023/06/11 16:51:15;;;;;;;5.57;3.88;;;43.90;38.70;;;;;;10122543;28;20055;-67
2023/06/11 16:56:07;;;;;;;4.05;2.90;;;44.00;38.60;;;;;;10123118;28;20517;-70
2023/06/11 17:00:58;;;;;;;4.15;3.67;;;44.50;38.30;;;;;;10120996;28;20605;-75
2023/06/11 17:05:48;;;;;;;3.58;3.28;;;43.30;38.60;;;;;;10129969;28;20204;-75
2023/06/11 17:10:39;;;;;;;4.07;2.83;;;42.80;38.80;;;;;;10125141;28;20466;-77
2023/06/11 17:15:31;;;;;;;5.38;3.40;;;43.00;39.00;;;;;;10139114;28;20090;-75
2023/06/11 17:20:22;;;;;;;3.78;3.40;;;43.10;38.80;;;;;;10127394;28;20415;-74
2023/06/11 17:25:14;;;;;;;3.42;3.13;;;42.60;39.00;;;;;;10125880;28;20040;-73
2023/06/11 17:30:05;;;;;;;6.30;4.60;;;42.50;39.00;;;;;;10103938;28;20032;-76
2023/06/11 17:34:56;;;;;;;5.10;4.70;;;41.60;39.10;;;;;;10137269;28;20095;-64
2023/06/11 17:39:47;;;;;;;4.30;3.90;;;41.00;39.40;;;;;;10104821;28;20032;-63
2023/06/11 17:44:38;;;;;;;3.85;3.53;;;41.10;39.30;;;;;;10103894;28;20490;-64
2023/06/11 17:49:28;;;;;;;3.22;2.92;;;40.60;39.60;;;;;;10117207;28;20037;-65
2023/06/11 17:54:19;;;;;;;5.82;3.28;;;40.10;39.80;;;;;;10110132;28;20040;-63
2023/06/11 17:59:10;;;;;;;4.53;3.42;;;39.30;40.30;;;;;;10126757;28;20371;-64
2023/06/11 18:04:00;;;;;;;3.57;3.13;;;37.80;40.90;;;;;;10133924;28;20140;-64
2023/06/11 18:08:51;;;;;;;3.95;3.25;;;35.90;41.90;;;;;;10121309;28;20028;-65
2023/06/11 18:13:42;;;;;;;4.45;3.30;;;34.90;42.30;;;;;;10131879;28;20044;-66
2023/06/11 18:18:32;;;;;;;3.88;3.25;;;34.10;42.50;;;;;;10106456;28;20040;-65
2023/06/11 18:23:23;;;;;;;7.40;3.38;;;33.50;42.90;;;;;;10116484;28;20402;-64
2023/06/11 18:28:14;;;;;;;5.35;3.58;;;33.20;43.00;;;;;;10111753;28;20032;-64
2023/06/11 18:33:04;;;;;;;5.05;4.10;;;32.90;43.20;;;;;;10125750;28;20267;-64
2023/06/11 18:37:55;;;;;;;5.43;3.60;;;32.80;43.40;;;;;;10126512;28;20024;-63
2023/06/11 18:42:47;;;;;;;6.80;4.03;;;32.60;43.60;;;;;;10117768;28;20433;-65
2023/06/11 18:47:38;;;;;;;6.13;4.20;;;32.50;43.70;;;;;;10129521;28;20024;-66
2023/06/11 18:52:29;;;;;;;9.90;4.43;;;32.30;44.00;;;;;;10122787;28;20032;-69
2023/06/11 18:57:23;;;;;;;6.20;4.80;;;32.20;44.30;;;;;;10128982;28;20522;-70
2023/06/11 19:02:14;;;;;;;4.13;3.45;;;32.00;44.60;;;;;;10121945;28;20056;-69
2023/06/11 19:07:05;;;;;;;12.98;4.93;;;31.70;44.90;;;;;;10123381;28;20045;-68
2023/06/11 19:11:58;;;;;;;4.10;3.50;;;31.70;45.10;;;;;;10117937;28;20491;-73
2023/06/11 19:16:49;;;;;;;6.47;4.07;;;31.40;45.40;;;;;;10117740;28;20374;-71
2023/06/11 19:21:40;;;;;;;4.03;3.10;;;31.40;46.00;;;;;;10119986;28;20037;-71
2023/06/11 19:26:30;;;;;;;5.32;3.83;;;31.30;46.50;;;;;;10129364;28;20517;-67
2023/06/11 19:31:21;;;;;;;8.00;4.72;;;31.20;46.80;;;;;;10116588;28;20464;-72
2023/06/11 19:36:12;;;;;;;4.65;3.63;;;31.10;47.10;;;;;;10142404;28;20071;-73
2023/06/11 19:41:03;;;;;;;8.30;5.45;;;31.00;47.40;;;;;;10137312;28;20110;-73
2023/06/11 19:45:53;;;;;;;6.78;3.83;;;30.90;47.50;;;;;;10141449;28;20036;-75
2023/06/11 19:50:44;;;;;;;4.20;3.65;;;30.70;47.80;;;;;;10120923;28;20036;-72
2023/06/11 19:55:35;;;;;;;7.65;3.55;;;30.60;48.00;;;;;;10132811;28;20160;-72
2023/06/11 20:00:26;;;;;;;7.00;3.88;;;30.50;48.20;;;;;;10122700;28;20159;-71
2023/06/11 20:05:17;;;;;;;5.95;3.53;;;30.50;48.50;;;;;;10120452;28;20216;-71
2023/06/11 20:10:08;;;;;;;8.15;3.85;;;30.30;48.60;;;;;;10104395;28;20275;-71
2023/06/11 20:14:59;;;;;;;6.63;4.47;;;30.20;48.80;;;;;;10124816;28;20032;-70
2023/06/11 20:19:50;;;;;;;5.55;4.20;;;30.20;48.90;;;;;;10116698;28;20047;-71
2023/06/11 20:24:40;;;;;;;6.22;4.10;;;30.00;49.10;;;;;;10133108;28;20029;-68
2023/06/11 20:29:31;;;;;;;5.32;3.65;;;29.90;49.30;;;;;;10119629;28;20486;-71
2023/06/11 20:34:21;;;;;;;5.80;4.05;;;29.80;49.50;;;;;;10115631;28;20037;-71
2023/06/11 20:39:12;;;;;;;5.22;3.58;;;29.60;49.60;;;;;;10106860;28;20119;-72
2023/06/11 20:44:03;;;;;;;6.20;3.83;;;29.60;49.60;;;;;;10125335;28;20115;-71
2023/06/11 20:48:53;;;;;;;5.20;3.67;;;29.50;49.80;;;;;;10121439;28;20036;-71
2023/06/11 20:53:44;;;;;;;5.15;3.30;;;29.50;49.90;;;;;;10133156;28;20066;-70
2023/06/11 20:58:35;;;;;;;8.77;4.00;;;29.20;50.00;;;;;;10130928;28;20325;-72
2023/06/11 21:03:26;;;;;;;5.07;4.03;;;29.20;50.20;;;;;;10117804;28;20473;-71
2023/06/11 21:08:17;;;;;;;5.03;3.70;;;29.00;50.30;;;;;;10115816;28;20025;-71
2023/06/11 21:13:08;;;;;;;5.28;3.72;;;28.80;50.40;;;;;;10110366;28;20120;-73
2023/06/11 21:17:58;;;;;;;5.00;3.78;;;28.70;50.40;;;;;;10123589;28;20108;-69
2023/06/11 21:22:49;;;;;;;5.97;3.67;;;28.70;50.50;;;;;;10122608;28;20040;-69
2023/06/11 21:27:41;;;;;;;7.22;4.50;;;28.70;50.50;;;;;;10124761;28;20024;-69
2023/06/11 21:32:32;;;;;;;6.03;3.63;;;28.50;50.70;;;;;;10125622;28;20312;-72
2023/06/11 21:37:22;;;;;;;6.95;4.05;;;28.50;50.80;;;;;;10116289;28;20119;-70
2023/06/11 21:42:13;;;;;;;5.07;4.15;;;28.50;51.00;;;;;;10115628;28;20569;-69
2023/06/11 21:47:04;;;;;;;4.43;3.60;;;28.50;51.10;;;;;;10127078;28;20074;-68
2023/06/11 21:51:56;;;;;;;5.80;4.18;;;28.50;51.30;;;;;;10106000;28;20031;-71
2023/06/11 21:56:46;;;;;;;4.35;3.70;;;28.30;51.50;;;;;;10123780;28;20024;-69
2023/06/11 22:01:37;;;;;;;5.22;3.40;;;28.10;51.80;;;;;;10121117;28;20055;-69
2023/06/11 22:06:27;;;;;;;5.30;4.22;;;28.00;52.10;;;;;;10114561;28;20051;-72
2023/06/11 22:11:18;;;;;;;4.93;3.35;;;27.80;52.40;;;;;;10117296;28;20033;-69
2023/06/11 22:16:09;;;;;;;7.95;5.00;;;27.70;52.60;;;;;;10116129;28;20029;-71
2023/06/11 22:21:00;;;;;;;5.10;4.30;;;27.70;52.80;;;;;;10113234;28;20017;-71
2023/06/11 22:25:52;;;;;;;6.25;3.85;;;27.70;53.00;;;;;;10113330;28;20490;-67
2023/06/11 22:30:43;;;;;;;4.65;4.05;;;27.60;53.20;;;;;;10112850;28;20596;-71
2023/06/11 22:35:33;;;;;;;4.70;3.20;;;27.60;53.50;;;;;;10116157;28;20033;-68
2023/06/11 22:40:24;;;;;;;4.68;3.70;;;27.50;53.70;;;;;;10120780;28;20044;-69
2023/06/11 22:45:15;;;;;;;4.10;3.63;;;27.50;54.00;;;;;;10116227;28;20511;-68
2023/06/11 22:50:06;;;;;;;4.50;3.97;;;27.40;54.70;;;;;;10121506;28;20037;-71
2023/06/11 22:54:57;;;;;;;5.95;3.53;;;27.20;54.50;;;;;;10114021;28;20032;-71
2023/06/11 22:59:48;;;;;;;5.50;3.33;;;27.20;54.60;;;;;;10127537;28;20029;-68
2023/06/11 23:04:39;;;;;;;8.23;4.10;;;27.20;54.60;;;;;;10112636;28;20052;-70
2023/06/11 23:09:30;;;;;;;5.20;3.55;;;27.10;54.90;;;;;;10114471;28;20433;-71
2023/06/11 23:14:20;;;;;;;5.13;4.25;;;27.00;55.10;;;;;;10113569;28;20039;-69
2023/06/11 23:19:11;;;;;;;5.15;4.05;;;27.10;55.20;;;;;;10115031;28;20038;-68
2023/06/11 23:24:04;;;;;;;6.60;4.30;;;27.00;55.30;;;;;;10115220;28;20422;-69
2023/06/11 23:28:55;;;;;;;5.63;3.90;;;26.70;55.80;;;;;;10116352;28;20025;-68
2023/06/11 23:33:49;;;;;;;5.40;3.55;;;26.50;56.10;;;;;;10111011;28;20025;-71
2023/06/11 23:38:39;;;;;;;7.50;4.78;;;26.60;56.20;;;;;;10125397;28;20065;-70
2023/06/11 23:43:30;;;;;;;7.30;4.28;;;26.60;56.20;;;;;;10120334;28;20089;-71
2023/06/11 23:48:20;;;;;;;6.25;4.13;;;26.40;56.40;;;;;;10132907;28;20029;-73
2023/06/11 23:53:11;;;;;;;5.95;3.88;;;26.40;56.70;;;;;;10115177;28;21225;-69
2023/06/11 23:58:15;;;;;;;4.35;3.75;;;26.40;56.80;;;;;;10121760;28;20029;-68
